Time;durP1;ratioP1;P1;durP2;ratioP2;P2;SDS_P1;SDS_P2;PMS_P1;PMS_P2;Temp;Humidity;BMP_temperature;BMP_pressure;BME280_temperature;BME280_humidity;BME280_pressure;Samples;Min_cycle;Max_cycle;Signal;HPM_P1;HPM_P2
2023/04/16 00:00:08;;;;;;;;;;;;;;;9.39;100.00;100933.84;4894865;29;19923;-84
2023/04/16 00:02:37;;;;;;;;;;;;;;;9.40;100.00;100935.53;4908154;29;20572;-85
2023/04/16 00:05:03;;;;;;;;;;;;;;;9.36;100.00;100934.94;4924497;29;19994;-85
2023/04/16 00:07:29;;;;;;;;;;;;;;;9.38;100.00;100937.47;4908761;29;20561;-85
2023/04/16 00:09:55;;;;;;;;;;;;;;;9.39;100.00;100936.50;4893684;29;19930;-85
2023/04/16 00:12:21;;;;;;;;;;;;;;;9.39;100.00;100942.63;4940675;28;19919;-85
2023/04/16 00:14:48;;;;;;;;;;;;;;;9.43;100.00;100943.19;4919809;29;19923;-85
2023/04/16 00:17:13;;;;;;;;;;;;;;;9.46;100.00;100939.47;4914586;29;20181;-85
2023/04/16 00:19:39;;;;;;;;;;;;;;;9.42;100.00;100937.09;4938454;28;20311;-85
2023/04/16 00:22:05;;;;;;;;;;;;;;;9.40;100.00;100924.97;4926340;29;19974;-86
2023/04/16 00:24:30;;;;;;;;;;;;;;;9.36;100.00;100916.47;4888766;29;19922;-85
2023/04/16 00:26:56;;;;;;;;;;;;;;;9.35;100.00;100914.78;4903712;28;20133;-86
2023/04/16 00:29:22;;;;;;;;;;;;;;;9.37;100.00;100912.03;4927021;29;20054;-85
2023/04/16 00:31:47;;;;;;;;;;;;;;;9.40;100.00;100911.78;4920792;29;19949;-85
2023/04/16 00:34:13;;;;;;;;;;;;;;;9.39;100.00;100903.03;4934030;29;20436;-86
2023/04/16 00:36:38;;;;;;;;;;;;;;;9.36;100.00;100908.56;4916251;29;19965;-86
2023/04/16 00:39:04;;;;;;;;;;;;;;;9.31;100.00;100910.72;4921722;29;19922;-85
2023/04/16 00:41:30;;;;;;;;;;;;;;;9.30;100.00;100907.25;4921738;29;19922;-86
2023/04/16 00:43:56;;;;;;;;;;;;;;;9.28;100.00;100910.97;4902676;29;19971;-86
2023/04/16 00:46:22;;;;;;;;;;;;;;;9.27;100.00;100914.59;4925142;29;19926;-85
2023/04/16 00:48:49;;;;;;;;;;;;;;;9.28;100.00;100919.75;4948632;28;19974;-86
2023/04/16 00:51:15;;;;;;;;;;;;;;;9.26;100.00;100908.47;4928604;29;20653;-87
2023/04/16 00:53:43;;;;;;;;;;;;;;;9.23;100.00;100908.72;4929103;29;19961;-86
2023/04/16 00:56:09;;;;;;;;;;;;;;;9.21;100.00;100909.78;4934950;29;20018;-86
2023/04/16 00:58:35;;;;;;;;;;;;;;;9.20;100.00;100911.59;4947339;28;20001;-86
2023/04/16 01:01:00;;;;;;;;;;;;;;;9.22;100.00;100909.66;4913365;29;19977;-86
2023/04/16 01:03:33;;;;;;;;;;;;;;;9.22;100.00;100908.84;4914240;29;20005;-85
2023/04/16 01:05:59;;;;;;;;;;;;;;;9.22;100.00;100909.66;4924859;29;19927;-86
2023/04/16 01:08:25;;;;;;;;;;;;;;;9.24;100.00;100909.53;4920065;29;20017;-85
2023/04/16 01:10:51;;;;;;;;;;;;;;;9.26;100.00;100908.47;4909590;29;20022;-86
2023/04/16 01:13:16;;;;;;;;;;;;;;;9.26;100.00;100908.47;4902800;29;20041;-86
2023/04/16 01:15:42;;;;;;;;;;;;;;;9.27;100.00;100904.88;4910098;29;20013;-86
2023/04/16 01:18:18;;;;;;;;;;;;;;;9.28;100.00;100901.28;4927471;29;20287;-86
2023/04/16 01:20:44;;;;;;;;;;;;;;;9.28;100.00;100898.63;4936246;29;20837;-86
2023/04/16 01:23:10;;;;;;;;;;;;;;;9.29;100.00;100900.31;4924882;29;19949;-86
2023/04/16 01:25:36;;;;;;;;;;;;;;;9.29;100.00;100902.94;4933482;29;19926;-86
2023/04/16 01:28:02;;;;;;;;;;;;;;;9.30;100.00;100890.59;4926469;29;19930;-86
2023/04/16 01:30:28;;;;;;;;;;;;;;;9.32;100.00;100906.31;4901386;29;19926;-86
2023/04/16 01:33:05;;;;;;;;;;;;;;;9.35;100.00;100906.88;4903265;29;19926;-86
2023/04/16 01:35:30;;;;;;;;;;;;;;;9.36;100.00;100898.00;4919871;29;19930;-86
2023/04/16 01:37:56;;;;;;;;;;;;;;;9.35;100.00;100896.31;4916766;29;19923;-86
2023/04/16 01:40:22;;;;;;;;;;;;;;;9.36;100.00;100900.66;4932350;29;20383;-86
2023/04/16 01:42:48;;;;;;;;;;;;;;;9.38;100.00;100898.72;4901070;29;19929;-86
2023/04/16 01:45:13;;;;;;;;;;;;;;;9.41;100.00;100903.72;4916556;29;19949;-86
2023/04/16 01:47:39;;;;;;;;;;;;;;;9.44;100.00;100900.03;4930773;29;19930;-85
2023/04/16 01:50:05;;;;;;;;;;;;;;;9.43;100.00;100903.59;4936487;29;19990;-85
2023/04/16 01:52:30;;;;;;;;;;;;;;;9.45;100.00;100906.13;4916830;29;20009;-86
2023/04/16 01:54:56;;;;;;;;;;;;;;;9.45;100.00;100906.97;4900176;29;20029;-86
2023/04/16 01:57:22;;;;;;;;;;;;;;;9.46;100.00;100902.53;4922907;29;19930;-86
2023/04/16 01:59:48;;;;;;;;;;;;;;;9.47;100.00;100896.28;4939151;29;20016;-86
2023/04/16 02:02:15;;;;;;;;;;;;;;;9.46;100.00;100898.06;4929910;29;19934;-86
2023/04/16 02:04:42;;;;;;;;;;;;;;;9.44;100.00;100886.84;4915735;29;19919;-86
2023/04/16 02:07:08;;;;;;;;;;;;;;;9.43;100.00;100893.06;4899450;29;20054;-86
2023/04/16 02:09:34;;;;;;;;;;;;;;;9.44;100.00;100897.38;4900074;29;20605;-86
2023/04/16 02:12:03;;;;;;;;;;;;;;;9.47;100.00;100905.06;4919315;29;20340;-86
2023/04/16 02:14:29;;;;;;;;;;;;;;;9.50;100.00;100907.44;4918699;29;20018;-86
2023/04/16 02:16:55;;;;;;;;;;;;;;;9.54;100.00;100906.22;4933001;29;19926;-86
2023/04/16 02:19:34;;;;;;;;;;;;;;;9.54;100.00;100902.72;4942427;29;20529;-86
2023/04/16 02:22:00;;;;;;;;;;;;;;;9.53;100.00;100898.41;4941255;29;20021;-85
2023/04/16 02:24:26;;;;;;;;;;;;;;;9.51;100.00;100901.19;4926709;29;20283;-86
2023/04/16 02:26:52;;;;;;;;;;;;;;;9.51;100.00;100900.34;4940256;29;20303;-86
2023/04/16 02:29:20;;;;;;;;;;;;;;;9.50;100.00;100904.78;4930003;29;19922;-86
2023/04/16 02:31:52;;;;;;;;;;;;;;;9.51;100.00;100897.69;4916187;29;19926;-85
2023/04/16 02:34:18;;;;;;;;;;;;;;;9.51;100.00;100906.47;4932055;29;19930;-85
2023/04/16 02:36:43;;;;;;;;;;;;;;;9.55;100.00;100907.91;4932243;29;20368;-85
2023/04/16 02:39:09;;;;;;;;;;;;;;;9.57;100.00;100910.41;4932487;29;19918;-85
2023/04/16 02:41:35;;;;;;;;;;;;;;;9.60;100.00;100901.41;4920990;29;19952;-86
2023/04/16 02:44:01;;;;;;;;;;;;;;;9.61;100.00;100901.28;4923894;29;19951;-85
2023/04/16 02:46:27;;;;;;;;;;;;;;;9.61;100.00;100910.97;4917939;29;19986;-85
2023/04/16 02:48:53;;;;;;;;;;;;;;;9.60;100.00;100910.16;4933870;28;20367;-85
2023/04/16 02:51:19;;;;;;;;;;;;;;;9.62;100.00;100907.41;4921208;29;19930;-85
2023/04/16 02:53:45;;;;;;;;;;;;;;;9.63;100.00;100907.28;4934095;29;19922;-85
2023/04/16 02:56:11;;;;;;;;;;;;;;;9.65;100.00;100904.50;4918562;29;19923;-85
2023/04/16 02:58:37;;;;;;;;;;;;;;;9.65;100.00;100910.59;4884595;29;20268;-85
2023/04/16 03:01:03;;;;;;;;;;;;;;;9.67;100.00;100911.31;4950760;28;19967;-85
2023/04/16 03:03:29;;;;;;;;;;;;;;;9.67;100.00;100906.03;4934810;29;19919;-84
2023/04/16 03:05:54;;;;;;;;;;;;;;;9.71;100.00;100911.06;4911399;29;20009;-85
2023/04/16 03:08:20;;;;;;;;;;;;;;;9.72;100.00;100912.72;4944199;29;19923;-85
2023/04/16 03:10:45;;;;;;;;;;;;;;;9.74;100.00;100911.66;4902858;29;19982;-85
2023/04/16 03:13:13;;;;;;;;;;;;;;;9.73;100.00;100904.69;4939003;28;20006;-85
2023/04/16 03:15:38;;;;;;;;;;;;;;;9.73;100.00;100904.69;4901466;29;20018;-85
2023/04/16 03:18:04;;;;;;;;;;;;;;;9.72;100.00;100895.09;4957341;28;19919;-85
2023/04/16 03:20:30;;;;;;;;;;;;;;;9.73;100.00;100896.75;4934503;29;19922;-84
2023/04/16 03:22:56;;;;;;;;;;;;;;;9.75;100.00;100894.00;4906516;29;19918;-85
2023/04/16 03:25:21;;;;;;;;;;;;;;;9.75;100.00;100901.91;4933367;29;20474;-85
2023/04/16 03:27:47;;;;;;;;;;;;;;;9.75;100.00;100894.00;4930361;29;19977;-85
2023/04/16 03:30:15;;;;;;;;;;;;;;;9.78;100.00;100902.50;4884210;29;20235;-85
2023/04/16 03:32:41;;;;;;;;;;;;;;;9.82;100.00;100900.47;4899101;29;20214;-85
2023/04/16 03:35:08;;;;;;;;;;;;;;;9.84;100.00;100902.97;4914959;29;19965;-84
2023/04/16 03:37:34;;;;;;;;;;;;;;;9.87;100.00;100900.06;4920042;29;19965;-84
2023/04/16 03:40:00;;;;;;;;;;;;;;;9.89;100.00;100901.59;4920607;29;20005;-85
2023/04/16 03:42:26;;;;;;;;;;;;;;;9.89;100.00;100904.25;4914830;29;19930;-85
2023/04/16 03:44:52;;;;;;;;;;;;;;;9.86;100.00;100907.16;4920107;29;20026;-85
2023/04/16 03:47:21;;;;;;;;;;;;;;;9.87;100.00;100897.44;4954213;28;19927;-85
2023/04/16 03:49:48;;;;;;;;;;;;;;;9.86;100.00;100901.03;4933879;29;19922;-85
2023/04/16 03:52:14;;;;;;;;;;;;;;;9.86;100.00;100911.59;4914953;29;19978;-84
2023/04/16 03:54:40;;;;;;;;;;;;;;;9.84;100.00;100905.59;4937053;29;19937;-85
2023/04/16 03:57:19;;;;;;;;;;;;;;;9.81;100.00;100896.13;4912356;29;20435;-85
2023/04/16 03:59:45;;;;;;;;;;;;;;;9.80;100.00;100900.59;4916893;29;19922;-85
2023/04/16 04:02:10;;;;;;;;;;;;;;;9.85;100.00;100904.63;4895184;29;19950;-85
2023/04/16 04:04:36;;;;;;;;;;;;;;;9.86;100.00;100907.16;4921863;29;20335;-85
2023/04/16 04:07:02;;;;;;;;;;;;;;;9.88;100.00;100909.66;4924636;29;20376;-85
2023/04/16 04:09:27;;;;;;;;;;;;;;;9.90;100.00;100894.53;4910969;29;20627;-85
2023/04/16 04:11:53;;;;;;;;;;;;;;;9.92;100.00;100895.25;4910079;29;20424;-85
2023/04/16 04:14:19;;;;;;;;;;;;;;;9.91;100.00;100894.41;4901198;29;19971;-85
2023/04/16 04:16:45;;;;;;;;;;;;;;;9.92;100.00;100897.88;4909951;29;19931;-85
2023/04/16 04:19:10;;;;;;;;;;;;;;;9.94;100.00;100890.66;4937189;29;20295;-85
2023/04/16 04:21:37;;;;;;;;;;;;;;;9.97;100.00;100900.13;4923365;29;20332;-85
2023/04/16 04:24:04;;;;;;;;;;;;;;;9.98;100.00;100904.44;4898966;29;19935;-85
2023/04/16 04:26:31;;;;;;;;;;;;;;;10.00;100.00;100898.06;4919481;29;19919;-85
2023/04/16 04:28:57;;;;;;;;;;;;;;;10.02;100.00;100904.06;4942191;29;19919;-85
2023/04/16 04:31:22;;;;;;;;;;;;;;;10.04;100.00;100907.41;4923537;29;19924;-85
2023/04/16 04:33:48;;;;;;;;;;;;;;;10.06;100.00;100912.56;4914687;29;19954;-85
2023/04/16 04:36:14;;;;;;;;;;;;;;;10.10;100.00;100908.69;4929629;29;19927;-85
2023/04/16 04:38:40;;;;;;;;;;;;;;;10.10;100.00;100919.25;4911151;29;19930;-85
2023/04/16 04:41:06;;;;;;;;;;;;;;;10.12;100.00;100906.75;4914385;29;19919;-84
2023/04/16 04:43:35;;;;;;;;;;;;;;;10.17;100.00;100912.50;4889871;29;20597;-85
2023/04/16 04:46:00;;;;;;;;;;;;;;;10.19;100.00;100909.72;4881055;29;19923;-84
2023/04/16 04:48:28;;;;;;;;;;;;;;;10.17;100.00;100915.16;4937258;29;19927;-84
2023/04/16 04:50:54;;;;;;;;;;;;;;;10.14;100.00;100909.28;4915294;29;19923;-84
2023/04/16 04:53:20;;;;;;;;;;;;;;;10.11;100.00;100907.75;4917404;29;19945;-85
2023/04/16 04:55:45;;;;;;;;;;;;;;;10.09;100.00;100907.03;4916956;29;20022;-85
2023/04/16 04:58:11;;;;;;;;;;;;;;;10.10;100.00;100899.91;4918708;29;19954;-85
2023/04/16 05:00:38;;;;;;;;;;;;;;;10.08;100.00;100905.34;4926429;29;19919;-85
2023/04/16 05:03:05;;;;;;;;;;;;;;;10.05;100.00;100898.50;4912500;29;19933;-85
2023/04/16 05:05:30;;;;;;;;;;;;;;;10.04;100.00;100898.66;4927199;29;20280;-85
2023/04/16 05:07:56;;;;;;;;;;;;;;;10.04;100.00;100896.00;4911097;29;19927;-85
2023/04/16 05:10:21;;;;;;;;;;;;;;;10.06;100.00;100904.66;4914096;29;19919;-84
2023/04/16 05:12:47;;;;;;;;;;;;;;;10.07;100.00;100903.66;4924984;29;19934;-85
2023/04/16 05:15:13;;;;;;;;;;;;;;;10.08;100.00;100913.25;4917616;29;19930;-84
2023/04/16 05:17:39;;;;;;;;;;;;;;;10.09;100.00;100916.75;4930154;29;19928;-85
2023/04/16 05:20:05;;;;;;;;;;;;;;;10.10;100.00;100911.34;4915221;29;19927;-85
2023/04/16 05:22:31;;;;;;;;;;;;;;;10.13;100.00;100916.34;4936476;29;19923;-85
2023/04/16 05:24:57;;;;;;;;;;;;;;;10.15;100.00;100916.22;4934357;29;20018;-85
2023/04/16 05:27:23;;;;;;;;;;;;;;;10.15;100.00;100919.72;4915196;29;20014;-85
2023/04/16 05:29:49;;;;;;;;;;;;;;;10.17;100.00;100919.59;4932496;29;19919;-84
2023/04/16 05:32:14;;;;;;;;;;;;;;;10.18;100.00;100922.09;4920117;29;20026;-85
2023/04/16 05:34:40;;;;;;;;;;;;;;;10.20;100.00;100921.97;4926847;29;19923;-84
2023/04/16 05:37:06;;;;;;;;;;;;;;;10.23;100.00;100932.28;4946319;28;19958;-84
2023/04/16 05:39:31;;;;;;;;;;;;;;;10.23;100.00;100929.63;4916341;29;19930;-84
2023/04/16 05:41:57;;;;;;;;;;;;;;;10.26;100.00;100928.53;4941232;29;20308;-85
2023/04/16 05:44:23;;;;;;;;;;;;;;;10.28;100.00;100929.25;4932183;29;20471;-84
2023/04/16 05:46:48;;;;;;;;;;;;;;;10.31;100.00;100939.53;4934832;29;19923;-85
2023/04/16 05:49:15;;;;;;;;;;;;;;;10.33;100.00;100934.13;4934661;29;19927;-85
2023/04/16 05:51:41;;;;;;;;;;;;;;;10.37;100.00;100932.88;4900944;29;19919;-84
2023/04/16 05:54:06;;;;;;;;;;;;;;;10.39;100.00;100936.25;4929903;29;19919;-84
2023/04/16 05:56:32;;;;;;;;;;;;;;;10.44;100.00;100941.97;4926276;29;20404;-84
2023/04/16 05:58:58;;;;;;;;;;;;;;;10.45;100.00;100948.94;4934780;29;19954;-84
2023/04/16 06:01:24;;;;;;;;;;;;;;;10.48;100.00;100950.53;4946906;28;19923;-84
2023/04/16 06:03:50;;;;;;;;;;;;;;;10.49;100.00;100944.25;4922522;29;19922;-84
2023/04/16 06:06:15;;;;;;;;;;;;;;;10.49;100.00;100947.75;4922683;29;20419;-85
2023/04/16 06:08:41;;;;;;;;;;;;;;;10.51;100.00;100955.56;4933044;29;19919;-85
2023/04/16 06:11:06;;;;;;;;;;;;;;;10.46;100.00;100950.66;4915473;29;19926;-85
2023/04/16 06:13:32;;;;;;;;;;;;;;;10.46;100.00;100955.06;4920073;29;20365;-84
2023/04/16 06:15:58;;;;;;;;;;;;;;;10.47;100.00;100956.75;4937417;29;19930;-84
2023/04/16 06:18:23;;;;;;;;;;;;;;;10.50;100.00;100965.28;4914930;29;19934;-84
2023/04/16 06:20:49;;;;;;;;;;;;;;;10.54;100.00;100965.84;4952845;28;19997;-84
2023/04/16 06:23:15;;;;;;;;;;;;;;;10.54;100.00;100963.22;4922036;29;20401;-85
2023/04/16 06:25:40;;;;;;;;;;;;;;;10.58;100.00;100966.41;4926087;29;19924;-85
2023/04/16 06:28:06;;;;;;;;;;;;;;;10.61;100.00;100969.63;4928891;29;19942;-85
2023/04/16 06:30:32;;;;;;;;;;;;;;;10.63;100.00;100972.16;4926941;29;19951;-85
2023/04/16 06:32:57;;;;;;;;;;;;;;;10.65;100.00;100970.22;4928226;29;19926;-84
2023/04/16 06:35:23;;;;;;;;;;;;;;;10.67;100.00;100973.56;4898131;29;19930;-85
2023/04/16 06:37:49;;;;;;;;;;;;;;;10.70;100.00;100975.97;4916395;29;20022;-85
2023/04/16 06:40:15;;;;;;;;;;;;;;;10.76;100.00;100974.59;4913327;29;20014;-85
2023/04/16 06:42:41;;;;;;;;;;;;;;;10.77;100.00;100971.81;4918275;29;20618;-85
2023/04/16 06:45:07;;;;;;;;;;;;;;;10.82;100.00;100981.97;4923314;29;20291;-85
2023/04/16 06:47:33;;;;;;;;;;;;;;;10.84;100.00;100976.56;4939490;29;19963;-85
2023/04/16 06:49:59;;;;;;;;;;;;;;;10.85;100.00;100984.34;4901065;29;20287;-85
2023/04/16 06:52:24;;;;;;;;;;;;;;;10.88;100.00;100993.81;4931381;28;19918;-85
2023/04/16 06:54:50;;;;;;;;;;;;;;;10.91;100.00;100991.75;4915338;29;19934;-85
2023/04/16 06:57:15;;;;;;;;;;;;;;;10.96;100.00;100991.34;4917172;29;20354;-85
2023/04/16 06:59:41;;;;;;;;;;;;;;;10.99;100.00;100996.38;4895052;29;19926;-85
2023/04/16 07:02:08;;;;;;;;;;;;;;;11.01;100.00;101001.53;4910712;29;19924;-85
2023/04/16 07:04:34;;;;;;;;;;;;;;;11.01;100.00;101001.53;4919443;29;19922;-85
2023/04/16 07:07:00;;;;;;;;;;;;;;;11.02;100.00;101006.69;4933624;29;19950;-85
2023/04/16 07:09:26;;;;;;;;;;;;;;;11.07;100.00;101006.28;4898255;29;19998;-85
2023/04/16 07:11:52;;;;;;;;;;;;;;;11.09;100.00;101008.81;4894427;29;19919;-85
2023/04/16 07:14:17;;;;;;;;;;;;;;;11.13;100.00;101008.41;4940349;28;19927;-85
2023/04/16 07:16:43;;;;;;;;;;;;;;;11.16;100.00;101007.31;4910080;29;20135;-85
2023/04/16 07:19:09;;;;;;;;;;;;;;;11.21;100.00;101012.19;4926139;29;20037;-85
2023/04/16 07:21:35;;;;;;;;;;;;;;;11.25;100.00;101021.53;4917490;29;20041;-86
2023/04/16 07:24:01;;;;;;;;;;;;;;;11.25;100.00;101024.19;4934552;29;20003;-85
2023/04/16 07:26:27;;;;;;;;;;;;;;;11.29;100.00;101029.06;4913523;29;19935;-85
2023/04/16 07:28:52;;;;;;;;;;;;;;;11.33;100.00;101026.16;4905422;29;19918;-85
2023/04/16 07:31:18;;;;;;;;;;;;;;;11.37;100.00;101023.09;4930915;29;19919;-85
2023/04/16 07:33:43;;;;;;;;;;;;;;;11.39;100.00;101020.31;4932803;29;20497;-85
2023/04/16 07:36:09;;;;;;;;;;;;;;;11.44;100.00;101033.13;4912068;29;20805;-85
2023/04/16 07:38:35;;;;;;;;;;;;;;;11.46;100.00;101032.06;4917260;29;20251;-85
2023/04/16 07:41:01;;;;;;;;;;;;;;;11.50;100.00;101038.75;4930463;29;20257;-82
2023/04/16 07:43:26;;;;;;;;;;;;;;;11.56;100.00;101033.88;4914807;29;19919;-82
2023/04/16 07:45:52;;;;;;;;;;;;;;;11.60;100.00;101035.28;4929183;29;19919;-85
2023/04/16 07:48:18;;;;;;;;;;;;;;;11.66;100.00;101047.97;4922178;29;20009;-85
2023/04/16 07:50:43;;;;;;;;;;;;;;;11.66;100.00;101040.88;4912163;29;20629;-86
2023/04/16 07:53:09;;;;;;;;;;;;;;;11.68;100.00;101042.53;4912678;29;19919;-85
2023/04/16 07:55:35;;;;;;;;;;;;;;;11.71;100.00;101039.59;4910679;29;20400;-85
2023/04/16 07:58:01;;;;;;;;;;;;;;;11.75;100.00;101038.38;4928024;29;19979;-85
2023/04/16 08:00:27;;;;;;;;;;;;;;;11.79;100.00;101037.97;4927942;29;20372;-86
2023/04/16 08:02:53;;;;;;;;;;;;;;;11.85;100.00;101047.16;4913769;29;19923;-85
2023/04/16 08:05:19;;;;;;;;;;;;;;;11.93;100.00;101043.81;4903563;29;20368;-85
2023/04/16 08:07:45;;;;;;;;;;;;;;;11.96;100.00;101037.44;4929755;29;20394;-86
2023/04/16 08:10:10;;;;;;;;;;;;;;;11.99;100.00;101040.63;4900118;29;20010;-86
2023/04/16 08:12:36;;;;;;;;;;;;;;;12.04;100.00;101045.50;4941214;29;20438;-85
2023/04/16 08:15:01;;;;;;;;;;;;;;;12.09;100.00;101039.84;4935728;29;19929;-86
2023/04/16 08:17:28;;;;;;;;;;;;;;;12.15;100.00;101049.88;4917939;29;20009;-85
2023/04/16 08:19:54;;;;;;;;;;;;;;;12.18;100.00;101046.94;4928490;29;20311;-86
2023/04/16 08:22:21;;;;;;;;;;;;;;;12.21;100.00;101053.75;4937930;29;19930;-85
2023/04/16 08:24:46;;;;;;;;;;;;;;;12.28;100.00;101050.41;4915852;29;19922;-86
2023/04/16 08:27:12;;;;;;;;;;;;;;;12.32;100.00;101045.69;4917162;29;20000;-86
2023/04/16 08:29:38;;;;;;;;;;;;;;;12.39;100.00;101059.22;4917992;29;19919;-86
2023/04/16 08:32:04;;;;;;;;;;;;;;;12.49;100.00;101053.88;4945524;29;19934;-86
2023/04/16 08:34:29;;;;;;;;;;;;;;;12.55;100.00;101053.28;4944313;29;19927;-86
2023/04/16 08:36:55;;;;;;;;;;;;;;;12.59;100.00;101051.22;4914856;29;19962;-86
2023/04/16 08:39:20;;;;;;;;;;;;;;;12.64;100.00;101051.63;4930339;29;19934;-86
2023/04/16 08:41:46;;;;;;;;;;;;;;;12.65;100.00;101047.97;4915569;29;20286;-86
2023/04/16 08:44:18;;;;;;;;;;;;;;;12.67;100.00;101047.84;4917277;29;20018;-86
2023/04/16 08:46:44;;;;;;;;;;;;;;;12.73;100.00;101055.22;4932452;29;19966;-86
2023/04/16 08:49:14;;;;;;;;;;;;;;;12.78;100.00;101053.81;4918785;29;20279;-85
2023/04/16 08:51:42;;;;;;;;;;;;;;;12.87;100.00;101053.91;4919281;29;19950;-86
2023/04/16 08:54:09;;;;;;;;;;;;;;;12.88;100.00;101058.25;4919444;29;19926;-86
2023/04/16 08:56:36;;;;;;;;;;;;;;;12.96;100.00;101057.53;4919949;29;19926;-86
2023/04/16 08:59:04;;;;;;;;;;;;;;;12.99;100.00;101059.91;4922927;29;19918;-86
2023/04/16 09:01:34;;;;;;;;;;;;;;;13.02;100.00;101057.81;4934432;29;19926;-85
2023/04/16 09:04:00;;;;;;;;;;;;;;;13.06;100.00;101055.66;4917684;29;19918;-86
2023/04/16 09:06:27;;;;;;;;;;;;;;;13.13;100.00;101048.81;4904480;29;19925;-85
2023/04/16 09:08:53;;;;;;;;;;;;;;;13.18;100.00;101066.97;4919762;29;19918;-86
2023/04/16 09:11:18;;;;;;;;;;;;;;;13.22;100.00;101059.53;4948219;28;19931;-86
2023/04/16 09:13:44;;;;;;;;;;;;;;;13.19;100.00;101060.66;4909046;28;19923;-87
2023/04/16 09:16:11;;;;;;;;;;;;;;;13.22;100.00;101060.38;4943832;28;19954;-87
2023/04/16 09:18:37;;;;;;;;;;;;;;;13.33;100.00;101056.69;4943806;28;20394;-86
2023/04/16 09:21:03;;;;;;;;;;;;;;;13.54;100.00;101060.94;4915088;29;19927;-83
2023/04/16 09:23:29;;;;;;;;;;;;;;;13.79;100.00;101065.69;4926935;29;19922;-83
2023/04/16 09:25:59;;;;;;;;;;;;;;;13.96;100.00;101066.69;4928235;29;19922;-86
2023/04/16 09:28:44;;;;;;;;;;;;;;;14.21;100.00;101069.56;4913486;29;19919;-85
2023/04/16 09:31:12;;;;;;;;;;;;;;;14.46;100.00;101069.78;4929879;29;19931;-87
2023/04/16 09:33:37;;;;;;;;;;;;;;;14.64;100.00;101062.59;4928653;29;19926;-86
2023/04/16 09:36:04;;;;;;;;;;;;;;;14.84;100.00;101074.88;4913042;29;19931;-89
2023/04/16 09:38:49;;;;;;;;;;;;;;;14.97;100.00;101061.16;4923191;29;20466;-87
2023/04/16 09:41:15;;;;;;;;;;;;;;;15.04;100.00;101069.31;4934631;29;19925;-87
2023/04/16 09:43:48;;;;;;;;;;;;;;;15.09;100.00;101072.34;4934122;29;19926;-86
2023/04/16 09:46:13;;;;;;;;;;;;;;;15.07;100.00;101069.84;4932778;29;19919;-87
2023/04/16 09:48:39;;;;;;;;;;;;;;;15.05;100.00;101073.66;4931245;29;20316;-86
2023/04/16 09:51:05;;;;;;;;;;;;;;;15.09;100.00;101075.84;4931332;29;19923;-85
2023/04/16 09:53:31;;;;;;;;;;;;;;;15.18;100.00;101076.72;4919035;29;20264;-86
2023/04/16 09:56:01;;;;;;;;;;;;;;;15.27;100.00;101069.63;4916759;29;19927;-85
2023/04/16 09:58:27;;;;;;;;;;;;;;;15.30;100.00;101063.97;4934571;29;19919;-86
2023/04/16 10:01:05;;;;;;;;;;;;;;;15.33;100.00;101063.66;4929497;29;19957;-87
2023/04/16 10:03:32;;;;;;;;;;;;;;;15.35;100.00;101071.47;4918914;29;19923;-89
2023/04/16 10:06:06;;;;;;;;;;;;;;;15.46;100.00;101079.19;4890263;29;19923;-88
2023/04/16 10:08:31;;;;;;;;;;;;;;;15.49;100.00;101078.00;4879764;29;19919;-89
2023/04/16 10:10:58;;;;;;;;;;;;;;;15.58;100.00;101078.84;4922741;29;19923;-89
2023/04/16 10:13:26;;;;;;;;;;;;;;;15.71;100.00;101073.06;4902331;29;19923;-88
2023/04/16 10:15:55;;;;;;;;;;;;;;;15.83;100.00;101078.94;4879002;29;19931;-87
2023/04/16 10:18:21;;;;;;;;;;;;;;;15.80;100.00;101081.94;4912525;29;20561;-88
2023/04/16 10:20:47;;;;;;;;;;;;;;;15.79;100.00;101085.56;4891950;29;19923;-88
2023/04/16 10:23:14;;;;;;;;;;;;;;;15.76;100.00;101086.75;4912698;29;19919;-89
2023/04/16 10:25:41;;;;;;;;;;;;;;;15.67;100.00;101091.22;4927531;29;19919;-88
2023/04/16 10:28:08;;;;;;;;;;;;;;;15.57;100.00;101086.03;4909780;29;19918;-90
2023/04/16 10:30:33;;;;;;;;;;;;;;;15.41;100.00;101097.47;4916019;29;20391;-89
2023/04/16 10:33:00;;;;;;;;;;;;;;;15.35;100.00;101092.78;4884074;29;19954;-89
2023/04/16 10:35:26;;;;;;;;;;;;;;;15.39;100.00;101091.44;4908023;29;19923;-89
2023/04/16 10:37:55;;;;;;;;;;;;;;;15.41;100.00;101084.16;4914391;29;20550;-82
2023/04/16 10:40:25;;;;;;;;;;;;;;;15.44;100.00;101088.31;4911469;29;19920;-82
2023/04/16 10:42:54;;;;;;;;;;;;;;;15.38;100.00;101090.59;4917108;29;19926;-88
2023/04/16 10:45:25;;;;;;;;;;;;;;;15.38;100.00;101092.47;4876214;29;20400;-88
2023/04/16 10:47:54;;;;;;;;;;;;;;;15.47;100.00;101095.97;4929578;29;19923;-88
2023/04/16 10:50:19;;;;;;;;;;;;;;;15.43;100.00;101102.63;4921429;29;20001;-87
2023/04/16 10:52:45;;;;;;;;;;;;;;;15.41;100.00;101099.28;4926426;29;20006;-89
2023/04/16 10:55:16;;;;;;;;;;;;;;;15.41;100.00;101097.47;4912114;29;20373;-87
2023/04/16 10:57:41;;;;;;;;;;;;;;;15.56;100.00;101091.53;4917766;29;19927;-89
2023/04/16 11:00:27;;;;;;;;;;;;;;;15.55;100.00;101088.03;4883649;29;19979;-88
2023/04/16 11:02:53;;;;;;;;;;;;;;;15.59;100.00;101088.53;4856822;29;19930;-88
2023/04/16 11:05:23;;;;;;;;;;;;;;;15.62;100.00;101088.22;4947226;28;19925;-88
2023/04/16 11:07:48;;;;;;;;;;;;;;;15.55;100.00;101090.69;4948824;28;19969;-88
2023/04/16 11:10:14;;;;;;;;;;;;;;;15.38;100.00;101089.78;4930229;29;19962;-87
2023/04/16 11:12:41;;;;;;;;;;;;;;;15.51;100.00;101073.38;4911645;29;19927;-88
2023/04/16 11:15:08;;;;;;;;;;;;;;;15.61;100.00;101087.38;4907525;29;20309;-87
2023/04/16 11:17:44;;;;;;;;;;;;;;;15.67;100.00;101085.88;4919023;29;19922;-87
2023/04/16 11:20:18;;;;;;;;;;;;;;;15.85;100.00;101080.44;4895494;29;19926;-87
2023/04/16 11:22:44;;;;;;;;;;;;;;;15.93;100.00;101082.28;4935849;28;19923;-87
2023/04/16 11:25:10;;;;;;;;;;;;;;;15.86;100.00;101078.63;4924459;29;19929;-87
2023/04/16 11:27:36;;;;;;;;;;;;;;;15.88;100.00;101077.44;4926340;29;19970;-87
2023/04/16 11:30:03;;;;;;;;;;;;;;;15.85;100.00;101083.09;4936127;28;20595;-87
2023/04/16 11:32:32;;;;;;;;;;;;;;;15.95;100.00;101079.44;4912286;29;19922;-87
2023/04/16 11:34:58;;;;;;;;;;;;;;;16.04;100.00;101078.50;4914160;29;19933;-87
2023/04/16 11:37:34;;;;;;;;;;;;;;;16.17;100.00;101078.00;4897962;29;19919;-83
2023/04/16 11:40:00;;;;;;;;;;;;;;;16.31;100.00;101079.16;4915275;29;19919;-81
2023/04/16 11:42:27;;;;;;;;;;;;;;;16.42;100.00;101075.31;4867899;29;20484;-87
2023/04/16 11:44:53;;;;;;;;;;;;;;;16.58;100.00;101073.69;4895868;29;20474;-87
2023/04/16 11:47:20;;;;;;;;;;;;;;;16.84;100.00;101068.09;4930353;29;20001;-87
2023/04/16 11:49:45;;;;;;;;;;;;;;;16.98;100.00;101077.25;4900704;29;19923;-87
2023/04/16 11:52:11;;;;;;;;;;;;;;;17.07;100.00;101069.22;4928911;29;19919;-86
2023/04/16 11:54:37;;;;;;;;;;;;;;;17.23;100.00;101077.19;4903682;29;20029;-87
2023/04/16 11:57:03;;;;;;;;;;;;;;;17.42;100.00;101063.59;4916798;29;19931;-83
2023/04/16 11:59:30;;;;;;;;;;;;;;;17.44;100.00;101066.94;4877179;29;19925;-87
2023/04/16 12:01:55;;;;;;;;;;;;;;;17.44;100.00;101064.25;4922820;29;19931;-87
2023/04/16 12:04:23;;;;;;;;;;;;;;;17.39;100.00;101059.41;4945103;29;19925;-87
2023/04/16 12:07:05;;;;;;;;;;;;;;;17.36;100.00;101063.28;4933211;29;20497;-87
2023/04/16 12:09:31;;;;;;;;;;;;;;;17.55;100.00;101066.50;4921310;29;19923;-87
2023/04/16 12:11:57;;;;;;;;;;;;;;;17.63;100.00;101064.81;4947467;28;19918;-88
2023/04/16 12:14:22;;;;;;;;;;;;;;;17.70;100.00;101061.25;4913794;29;19945;-87
2023/04/16 12:16:48;;;;;;;;;;;;;;;17.89;100.00;101060.97;4941285;29;20037;-87
2023/04/16 12:19:14;;;;;;;;;;;;;;;18.03;100.00;101072.75;4915935;29;19923;-87
2023/04/16 12:21:40;;;;;;;;;;;;;;;17.96;100.00;101067.28;4922324;29;19918;-87
2023/04/16 12:24:07;;;;;;;;;;;;;;;18.07;100.00;101066.88;4900459;29;19923;-88
2023/04/16 12:26:42;;;;;;;;;;;;;;;18.23;100.00;101059.75;4947730;29;20327;-87